createdAt,value
2018-09-04T05:48:50.220Z,51.00
2018-09-04T05:49:50.198Z,91.70
2018-09-04T05:51:10.965Z,29.30
2018-09-04T05:51:56.004Z,31.30
2018-09-04T05:52:36.263Z,30.00
2018-09-04T05:53:42.066Z,25.80
2018-09-04T05:55:52.752Z,26.60
2018-09-04T05:57:41.859Z,24.80
2018-09-04T05:58:23.896Z,27.00
2018-09-04T05:59:09.313Z,78.00
2018-09-04T05:59:49.529Z,24.10
2018-09-04T06:00:34.900Z,24.60
2018-09-04T06:01:15.161Z,27.10
2018-09-04T06:02:23.681Z,25.70
2018-09-04T06:03:26.163Z,26.60
2018-09-04T06:04:31.661Z,24.10
2018-09-04T06:05:11.925Z,24.40
2018-09-04T06:05:57.298Z,23.80
2018-09-04T06:07:02.823Z,23.70
2018-09-04T06:07:43.059Z,23.90
2018-09-04T06:08:28.427Z,23.40
2018-09-04T06:09:54.056Z,24.70
2018-09-04T06:10:59.554Z,24.60
2018-09-04T06:11:59.550Z,26.20
2018-09-04T06:12:59.599Z,27.70
2018-09-04T06:13:59.520Z,23.70
2018-09-04T06:14:59.511Z,26.70
2018-09-04T06:15:59.504Z,26.10
2018-09-04T06:16:59.488Z,26.40
2018-09-04T06:17:59.495Z,25.90
2018-09-04T06:18:59.468Z,25.60
2018-09-04T06:19:59.484Z,25.60
2018-09-04T06:20:59.445Z,24.10
2018-09-04T06:21:59.437Z,24.70
2018-09-04T06:22:59.446Z,24.80
2018-09-04T06:23:59.405Z,24.80
2018-09-04T06:24:59.398Z,25.00
2018-09-04T06:25:59.386Z,23.80
2018-09-04T06:26:59.375Z,26.50
2018-09-04T06:27:59.389Z,24.80
2018-09-04T06:28:59.355Z,23.20
2018-09-04T06:29:59.340Z,24.20
2018-09-04T06:30:59.327Z,24.30
2018-09-04T06:31:59.318Z,24.80
2018-09-04T06:32:59.304Z,24.20
2018-09-04T06:33:59.376Z,24.20
2018-09-04T06:34:59.277Z,25.00
2018-09-04T06:35:59.275Z,24.40
2018-09-04T06:36:59.254Z,24.10
2018-09-04T06:37:59.253Z,24.80
2018-09-04T06:38:59.262Z,23.80
2018-09-04T06:39:59.223Z,24.50
2018-09-04T06:40:59.217Z,22.60
2018-09-04T06:41:59.204Z,23.70
2018-09-04T06:42:59.189Z,23.40
2018-09-04T06:43:59.175Z,23.50
2018-09-04T06:44:59.184Z,23.50
2018-09-04T06:45:59.153Z,24.00
2018-09-04T06:46:59.146Z,23.30
2018-09-04T06:47:59.132Z,23.20
2018-09-04T06:48:59.122Z,24.00
2018-09-04T06:49:59.127Z,24.60
2018-09-04T06:50:59.100Z,22.70
2018-09-04T06:51:59.081Z,22.30
2018-09-04T06:52:59.078Z,22.20
2018-09-04T06:53:59.064Z,22.60
2018-09-04T06:54:59.077Z,22.50
2018-09-04T06:55:59.040Z,22.30
2018-09-04T06:56:59.025Z,22.10
2018-09-04T06:57:59.169Z,21.60
2018-09-04T06:58:59.002Z,22.40
2018-09-04T06:59:58.993Z,22.30
2018-09-04T07:00:59.007Z,21.80
2018-09-04T07:01:58.966Z,21.90
2018-09-04T07:02:58.962Z,21.80
2018-09-04T07:03:58.950Z,21.50
2018-09-04T07:04:58.934Z,21.30
2018-09-04T07:05:58.969Z,21.00
2018-09-04T07:06:58.917Z,20.30
2018-09-04T07:07:58.911Z,20.40
2018-09-04T07:08:58.886Z,20.40
2018-09-04T07:09:58.883Z,19.20
2018-09-04T07:10:58.884Z,21.70
2018-09-04T07:11:58.865Z,21.10
2018-09-04T07:12:58.841Z,20.80
2018-09-04T07:13:58.838Z,22.00
2018-09-04T07:14:58.898Z,22.20
2018-09-04T07:15:58.841Z,21.20
2018-09-04T07:16:58.822Z,18.80
2018-09-04T07:17:58.786Z,20.30
2018-09-04T07:18:58.778Z,19.70
2018-09-04T07:19:58.764Z,16.20
2018-09-04T07:20:58.755Z,17.80
2018-09-04T07:21:58.760Z,19.50
2018-09-04T07:22:58.734Z,18.80
2018-09-04T07:23:58.768Z,20.90
2018-09-04T07:24:58.711Z,21.00
2018-09-04T07:25:58.698Z,15.30
2018-09-04T07:26:58.705Z,13.00
2018-09-04T07:27:58.675Z,11.40
2018-09-04T07:28:58.661Z,13.80
2018-09-04T07:29:58.657Z,17.10
2018-09-04T07:30:58.635Z,16.20
2018-09-04T07:31:58.633Z,14.20
2018-09-04T07:32:58.637Z,16.10
2018-09-04T07:33:58.608Z,19.40
2018-09-04T07:34:58.594Z,20.30
2018-09-04T07:35:58.587Z,19.50
2018-09-04T07:36:58.572Z,20.40
2018-09-04T07:37:58.588Z,22.70
2018-09-04T07:38:58.550Z,21.60
2018-09-04T07:39:58.545Z,16.40
2018-09-04T07:40:58.523Z,19.50
2018-09-04T07:41:58.582Z,20.40
2018-09-04T07:42:58.521Z,22.30
2018-09-04T07:43:58.498Z,20.70
2018-09-04T07:44:58.478Z,20.80
2018-09-04T07:45:58.475Z,21.30
2018-09-04T07:46:58.458Z,25.00
2018-09-04T07:47:58.476Z,12.50
2018-09-04T07:48:58.440Z,27.50
2018-09-04T07:49:58.424Z,18.40
2018-09-04T07:50:58.416Z,21.60
2018-09-04T07:51:58.400Z,22.20
2018-09-04T07:52:58.393Z,22.40
2018-09-04T07:53:58.397Z,24.40
2018-09-04T07:54:58.373Z,23.70
2018-09-04T07:55:58.356Z,25.50
2018-09-04T07:56:58.350Z,27.30
2018-09-04T07:57:58.330Z,24.30
2018-09-04T07:58:58.361Z,14.80
2018-09-04T07:59:58.309Z,24.30
2018-09-04T08:00:58.368Z,23.10
2018-09-04T08:01:58.288Z,21.70
2018-09-04T08:02:58.273Z,13.20
2018-09-04T08:03:58.313Z,22.00
2018-09-04T08:04:58.272Z,24.10
2018-09-04T08:05:58.240Z,21.10
2018-09-04T08:06:58.239Z,20.30
2018-09-04T08:07:58.225Z,19.60
2018-09-04T08:08:58.209Z,25.20
2018-09-04T08:09:58.282Z,25.00
2018-09-04T08:10:58.190Z,26.10
2018-09-04T08:11:58.181Z,27.20
2018-09-04T08:12:58.162Z,25.50
2018-09-04T08:13:58.154Z,23.70
2018-09-04T08:14:58.166Z,25.20
2018-09-04T08:15:58.137Z,21.60
2018-09-04T08:16:58.118Z,14.90
2018-09-04T08:17:58.107Z,25.60
2018-09-04T08:18:58.104Z,26.10
2018-09-04T08:19:58.113Z,20.90
2018-09-04T08:20:58.125Z,20.80
2018-09-04T08:21:58.065Z,20.80
2018-09-04T08:22:58.057Z,26.20
2018-09-04T08:23:58.042Z,22.10
2018-09-04T08:24:58.063Z,22.30
2018-09-04T08:25:58.033Z,23.50
2018-09-04T08:26:58.013Z,18.60
2018-09-04T08:27:57.994Z,13.10
2018-09-04T08:28:57.993Z,19.70
2018-09-04T08:29:57.971Z,17.80
2018-09-04T08:30:57.994Z,20.90
2018-09-04T08:31:57.950Z,18.40
2018-09-04T08:32:57.984Z,16.60
2018-09-04T08:33:57.932Z,21.50
2018-09-04T08:34:57.921Z,24.80
2018-09-04T08:35:57.936Z,26.00
2018-09-04T08:36:57.901Z,21.00
2018-09-04T08:37:57.889Z,21.20
2018-09-04T08:38:57.878Z,16.60
2018-09-04T08:39:57.876Z,18.10
2018-09-04T08:40:57.851Z,11.40
2018-09-04T08:41:57.870Z,25.40
2018-09-04T08:42:57.827Z,23.50
2018-09-04T08:43:57.824Z,21.70
2018-09-04T08:44:57.805Z,18.50
2018-09-04T08:45:57.795Z,15.00
2018-09-04T08:46:57.804Z,21.20
2018-09-04T08:47:57.781Z,24.40
2018-09-04T08:48:57.760Z,20.40
2018-09-04T08:49:57.748Z,23.60
2018-09-04T08:50:57.746Z,18.50
2018-09-04T08:51:57.762Z,18.90
2018-09-04T08:52:57.724Z,17.40
2018-09-04T08:53:57.720Z,24.10
2018-09-04T08:54:57.693Z,20.30
2018-09-04T08:55:57.690Z,20.10
2018-09-04T08:56:57.677Z,16.20
2018-09-04T08:57:57.688Z,23.90
2018-09-04T08:58:57.655Z,22.50
2018-09-04T08:59:57.639Z,18.90
2018-09-04T09:00:57.636Z,20.90
2018-09-04T09:01:57.616Z,23.20
2018-09-04T09:02:57.629Z,14.80
2018-09-04T09:03:57.599Z,17.30
2018-09-04T09:04:57.590Z,13.70
2018-09-04T09:05:57.576Z,14.10
2018-09-04T09:06:57.565Z,19.60
2018-09-04T09:07:57.572Z,18.60
2018-09-04T09:08:57.542Z,24.20
2018-09-04T09:09:57.594Z,21.60
2018-09-04T09:10:57.517Z,25.10
2018-09-04T09:11:57.502Z,24.90
2018-09-04T09:12:57.528Z,24.30
2018-09-04T09:13:57.487Z,23.60
2018-09-04T09:14:57.469Z,21.20
2018-09-04T09:15:57.462Z,23.10
2018-09-04T09:16:57.451Z,21.80
2018-09-04T09:17:57.438Z,24.10
2018-09-04T09:18:57.450Z,23.40
2018-09-04T09:19:57.421Z,24.80
2018-09-04T09:20:57.408Z,23.50
2018-09-04T09:21:57.395Z,19.20
2018-09-04T09:22:57.493Z,20.50
2018-09-04T09:23:57.389Z,19.60
2018-09-04T09:24:57.363Z,22.60
2018-09-04T09:25:57.353Z,23.00
2018-09-04T09:26:57.334Z,20.70
2018-09-04T09:27:57.331Z,20.90
2018-09-04T09:28:57.340Z,13.50
2018-09-04T09:29:57.304Z,10.90
2018-09-04T09:30:57.290Z,19.00
2018-09-04T09:31:57.280Z,14.10
2018-09-04T09:32:57.264Z,12.40
2018-09-04T09:33:57.259Z,13.00
2018-09-04T09:34:57.268Z,18.40
2018-09-04T09:35:57.233Z,20.70
2018-09-04T09:36:57.237Z,14.30
2018-09-04T09:37:57.212Z,13.50
2018-09-04T09:38:57.202Z,18.50
2018-09-04T09:39:57.227Z,16.10
2018-09-04T09:40:57.177Z,12.60
2018-09-04T09:41:57.171Z,17.60
2018-09-04T09:42:57.158Z,20.40
2018-09-04T09:43:57.148Z,19.70
2018-09-04T09:44:57.135Z,18.80
2018-09-04T09:45:57.193Z,13.30
2018-09-04T09:46:57.110Z,22.00
2018-09-04T09:47:57.108Z,22.00
2018-09-04T09:48:57.091Z,13.70
2018-09-04T09:49:57.114Z,14.60
2018-09-04T09:50:57.071Z,15.00
2018-09-04T09:51:57.065Z,14.70
2018-09-04T09:52:57.067Z,16.60
2018-09-04T09:53:57.060Z,12.40
2018-09-04T09:54:57.026Z,17.10
2018-09-04T09:55:57.031Z,13.40
2018-09-04T09:56:57.018Z,16.50
2018-09-04T09:57:56.999Z,13.00
2018-09-04T09:58:56.978Z,16.40
2018-09-04T09:59:57.058Z,19.30
2018-09-04T10:00:56.985Z,15.80
2018-09-04T10:01:56.976Z,21.00
2018-09-04T10:02:56.936Z,20.40
2018-09-04T10:03:56.948Z,17.90
2018-09-04T10:04:56.922Z,18.40
2018-09-04T10:05:56.935Z,13.30
2018-09-04T10:06:56.901Z,21.80
2018-09-04T10:07:56.938Z,20.40
2018-09-04T10:08:56.872Z,19.30
2018-09-04T10:09:56.916Z,19.10
2018-09-04T10:10:56.846Z,22.00
2018-09-04T10:11:56.866Z,18.60
2018-09-04T10:12:56.827Z,17.40
2018-09-04T10:13:56.819Z,17.80
2018-09-04T10:14:56.807Z,15.60
2018-09-04T10:15:56.791Z,17.40
2018-09-04T10:16:56.819Z,14.80
2018-09-04T10:17:56.779Z,12.90
2018-09-04T10:18:56.759Z,17.00
2018-09-04T10:19:56.832Z,18.80
2018-09-04T10:20:56.744Z,12.40
2018-09-04T10:21:56.730Z,11.80
2018-09-04T10:22:56.741Z,14.30
2018-09-04T10:23:56.706Z,15.60
2018-09-04T10:24:56.694Z,17.50
2018-09-04T10:25:56.688Z,18.60
2018-09-04T10:26:56.679Z,19.60
2018-09-04T10:27:56.690Z,17.80
2018-09-04T10:28:56.652Z,16.80
2018-09-04T10:29:56.646Z,21.10
2018-09-04T10:30:56.627Z,20.90
2018-09-04T10:31:56.624Z,18.40
2018-09-04T10:32:56.635Z,18.70
2018-09-04T10:33:56.599Z,18.10
2018-09-04T10:34:56.586Z,14.50
2018-09-04T10:35:56.580Z,19.10
2018-09-04T10:36:56.564Z,18.90
2018-09-04T10:37:56.549Z,16.00
2018-09-04T10:38:56.571Z,15.90
2018-09-04T10:39:56.535Z,21.80
2018-09-04T10:40:56.527Z,17.40
2018-09-04T10:41:56.516Z,15.00
2018-09-04T10:42:56.503Z,18.70
2018-09-04T10:43:56.513Z,14.30
2018-09-04T10:44:56.481Z,12.20
2018-09-04T10:45:56.469Z,18.10
2018-09-04T10:46:56.462Z,14.60
2018-09-04T10:47:56.454Z,15.00
2018-09-04T10:48:56.463Z,15.90
2018-09-04T10:49:56.425Z,17.50
2018-09-04T10:50:56.423Z,13.80
2018-09-04T10:51:56.409Z,10.80
2018-09-04T10:52:56.395Z,15.20
2018-09-04T10:53:56.383Z,13.50
2018-09-04T10:54:56.409Z,17.60
2018-09-04T10:55:56.367Z,13.80
2018-09-04T10:56:56.355Z,14.50
2018-09-04T10:57:56.350Z,16.40
2018-09-04T10:58:56.339Z,16.00
2018-09-04T10:59:56.334Z,17.10
2018-09-04T11:00:56.337Z,9.80
2018-09-04T11:01:56.304Z,11.20
2018-09-04T11:02:56.302Z,12.70
2018-09-04T11:03:56.284Z,10.70
2018-09-04T11:04:56.281Z,15.20
2018-09-04T11:05:56.287Z,14.10
2018-09-04T11:06:56.256Z,14.40
2018-09-04T11:07:56.242Z,13.60
2018-09-04T11:08:56.236Z,13.80
2018-09-04T11:09:56.376Z,16.60
2018-09-04T11:10:56.242Z,18.90
2018-09-04T11:11:56.198Z,16.30
2018-09-04T11:12:56.193Z,14.50
2018-09-04T11:13:56.173Z,13.60
2018-09-04T11:14:56.173Z,17.50
2018-09-04T11:15:56.153Z,14.70
2018-09-04T11:16:56.172Z,17.20
2018-09-04T11:17:56.141Z,19.00
2018-09-04T11:18:56.120Z,13.10
2018-09-04T11:19:56.118Z,10.90
2018-09-04T11:20:56.099Z,16.20
2018-09-04T11:21:56.116Z,13.90
2018-09-04T11:22:56.081Z,18.30
2018-09-04T11:23:56.073Z,16.60
2018-09-04T11:24:56.060Z,14.10
2018-09-04T11:25:56.052Z,15.60
2018-09-04T11:26:56.062Z,14.80
2018-09-04T11:27:56.033Z,15.20
2018-09-04T11:28:56.020Z,14.30
2018-09-04T11:29:56.015Z,15.60
2018-09-04T11:30:56.004Z,15.60
2018-09-04T11:31:56.019Z,14.40
2018-09-04T11:32:55.984Z,15.90
2018-09-04T11:33:55.968Z,11.30
2018-09-04T11:34:55.966Z,13.00
2018-09-04T11:35:55.951Z,11.90
2018-09-04T11:36:55.948Z,11.70
2018-09-04T11:37:55.954Z,13.60
2018-09-04T11:38:55.927Z,12.30
2018-09-04T11:39:55.912Z,12.30
2018-09-04T11:40:55.908Z,10.00
2018-09-04T11:41:55.892Z,13.50
2018-09-04T11:42:55.908Z,16.30
2018-09-04T11:43:55.873Z,15.60
2018-09-04T11:44:55.868Z,10.90
2018-09-04T11:45:55.851Z,15.20
2018-09-04T11:46:55.901Z,15.70
2018-09-04T11:47:55.866Z,14.20
2018-09-04T11:48:55.827Z,15.30
2018-09-04T11:49:55.815Z,12.80
2018-09-04T11:50:55.808Z,11.70
2018-09-04T11:51:55.802Z,11.70
2018-09-04T11:52:55.782Z,11.00
2018-09-04T11:53:55.794Z,11.10
2018-09-04T11:54:55.772Z,13.20
2018-09-04T11:55:55.758Z,14.50
2018-09-04T11:56:55.745Z,12.20
2018-09-04T11:57:55.738Z,11.00
2018-09-04T11:58:55.751Z,12.40
2018-09-04T11:59:55.718Z,11.80
2018-09-04T12:00:55.707Z,14.90
2018-09-04T12:01:55.704Z,10.70
2018-09-04T12:02:55.684Z,13.70
2018-09-04T12:03:55.705Z,13.10
2018-09-04T12:04:55.666Z,11.40
2018-09-04T12:05:55.664Z,10.30
2018-09-04T12:06:55.648Z,11.80
2018-09-04T12:07:55.636Z,9.80
2018-09-04T12:08:55.648Z,13.40
2018-09-04T12:09:55.619Z,14.40
2018-09-04T12:10:55.608Z,13.60
2018-09-04T12:11:55.599Z,13.60
2018-09-04T12:12:55.610Z,8.30
2018-09-04T12:13:55.601Z,9.40
2018-09-04T12:14:55.571Z,9.60
2018-09-04T12:15:55.560Z,12.60
2018-09-04T12:16:55.551Z,9.50
2018-09-04T12:17:55.540Z,11.00
2018-09-04T12:18:55.575Z,13.40
2018-09-04T12:19:55.521Z,13.00
2018-09-04T12:20:55.676Z,12.60
2018-09-04T12:21:55.501Z,12.10
2018-09-04T12:22:55.489Z,11.00
2018-09-04T12:23:55.482Z,12.90
2018-09-04T12:24:55.571Z,14.20
2018-09-04T12:25:55.459Z,12.60
2018-09-04T12:26:55.455Z,14.00
2018-09-04T12:27:55.439Z,13.40
2018-09-04T12:28:55.432Z,12.70
2018-09-04T12:29:55.448Z,12.80
2018-09-04T12:30:55.409Z,13.00
2018-09-04T12:31:55.397Z,14.40
2018-09-04T12:32:55.391Z,13.40
2018-09-04T12:33:55.416Z,13.80
2018-09-04T12:34:55.365Z,14.10
2018-09-04T12:35:55.378Z,13.50
2018-09-04T12:36:55.344Z,15.00
2018-09-04T12:37:55.336Z,16.10
2018-09-04T12:38:55.326Z,10.60
2018-09-04T12:39:55.312Z,14.40
2018-09-04T12:40:55.330Z,13.40
2018-09-04T12:41:55.327Z,12.90
2018-09-04T12:42:55.280Z,12.30
2018-09-04T12:43:55.270Z,14.60
2018-09-04T12:44:55.281Z,13.50
2018-09-04T12:45:55.248Z,12.50
2018-09-04T12:46:55.268Z,13.60
2018-09-04T12:47:55.274Z,13.50
2018-09-04T12:48:55.216Z,11.30
2018-09-04T12:49:55.205Z,14.20
2018-09-04T12:50:55.193Z,15.10
2018-09-04T12:51:55.205Z,11.80
2018-09-04T12:52:55.172Z,12.10
2018-09-04T12:53:55.160Z,13.10
2018-09-04T12:54:55.151Z,11.90
2018-09-04T12:55:55.140Z,12.30
2018-09-04T12:56:55.154Z,11.50
2018-09-04T12:57:55.117Z,9.70
2018-09-04T12:58:55.109Z,9.70
2018-09-04T12:59:55.116Z,10.00
2018-09-04T13:00:55.085Z,10.20
2018-09-04T13:01:55.075Z,8.90
2018-09-04T13:02:55.087Z,11.80
2018-09-04T13:03:55.052Z,9.70
2018-09-04T13:04:55.047Z,11.50
2018-09-04T13:05:55.032Z,10.00
2018-09-04T13:06:55.022Z,11.90
2018-09-04T13:07:55.032Z,12.70
2018-09-04T13:08:55.006Z,11.50
2018-09-04T13:09:54.991Z,9.90
2018-09-04T13:10:54.980Z,11.20
2018-09-04T13:11:54.970Z,10.50
2018-09-04T13:12:54.985Z,11.60
2018-09-04T13:13:54.957Z,12.50
2018-09-04T13:14:54.942Z,11.90
2018-09-04T13:15:54.935Z,10.20
2018-09-04T13:16:54.923Z,12.00
2018-09-04T13:17:54.936Z,10.80
2018-09-04T13:18:54.902Z,10.80
2018-09-04T13:19:54.890Z,10.40
2018-09-04T13:20:54.881Z,11.50
2018-09-04T13:21:54.892Z,10.10
2018-09-04T13:22:54.879Z,9.10
2018-09-04T13:23:54.849Z,9.80
2018-09-04T13:24:54.839Z,9.90
2018-09-04T13:25:54.829Z,9.90
2018-09-04T13:26:54.817Z,10.20
2018-09-04T13:27:54.834Z,10.70
2018-09-04T13:28:54.795Z,10.60
2018-09-04T13:29:54.787Z,9.20
2018-09-04T13:30:54.776Z,10.10
2018-09-04T13:31:54.765Z,9.80
2018-09-04T13:32:54.759Z,9.80
2018-09-04T13:33:54.765Z,10.20
2018-09-04T13:34:54.737Z,10.40
2018-09-04T13:35:54.726Z,9.20
2018-09-04T13:36:54.716Z,9.20
2018-09-04T13:37:54.705Z,10.00
2018-09-04T13:38:54.718Z,10.10
2018-09-04T13:39:54.684Z,9.70
2018-09-04T13:40:54.677Z,8.70
2018-09-04T13:41:54.666Z,9.10
2018-09-04T13:42:54.657Z,9.10
2018-09-04T13:43:54.676Z,8.90
2018-09-04T13:44:54.637Z,8.80
2018-09-04T13:45:54.627Z,8.50
2018-09-04T13:46:54.617Z,9.90
2018-09-04T13:47:54.613Z,9.20
2018-09-04T13:48:54.601Z,7.90
2018-09-04T13:49:54.612Z,9.00
2018-09-04T13:50:54.579Z,8.50
2018-09-04T13:51:54.571Z,8.90
2018-09-04T13:52:54.560Z,9.00
2018-09-04T13:53:54.549Z,9.60
2018-09-04T13:54:54.565Z,9.60
2018-09-04T13:55:54.530Z,10.00
2018-09-04T13:56:54.520Z,9.00
2018-09-04T13:57:54.512Z,9.20
2018-09-04T13:58:54.501Z,8.30
2018-09-04T13:59:54.518Z,8.70
2018-09-04T14:00:54.481Z,8.80
2018-09-04T14:01:54.473Z,9.60
2018-09-04T14:02:54.462Z,8.70
2018-09-04T14:03:54.451Z,9.70
2018-09-04T14:04:54.440Z,8.30
2018-09-04T14:05:54.452Z,9.40
2018-09-04T14:06:54.422Z,10.00
2018-09-04T14:07:54.412Z,8.40
2018-09-04T14:08:54.402Z,9.10
2018-09-04T14:09:54.392Z,9.20
2018-09-04T14:10:54.403Z,8.90
2018-09-04T14:11:54.372Z,9.20
2018-09-04T14:12:54.362Z,8.30
2018-09-04T14:13:54.376Z,8.70
2018-09-04T14:14:54.342Z,9.10
2018-09-04T14:15:54.355Z,9.80
2018-09-04T14:16:54.365Z,9.60
2018-09-04T14:17:54.312Z,9.30
2018-09-04T14:18:54.300Z,9.90
2018-09-04T14:19:54.288Z,9.80
2018-09-04T14:20:54.346Z,9.60
2018-09-04T14:21:54.267Z,10.40
2018-09-04T14:22:54.256Z,10.00
2018-09-04T14:23:54.248Z,10.50
2018-09-04T14:24:54.235Z,10.60
2018-09-04T14:25:54.223Z,9.80
2018-09-04T14:26:54.236Z,9.90
2018-09-04T14:27:54.203Z,8.80
2018-09-04T14:29:07.051Z,8.70
2018-09-04T14:30:15.540Z,10.30
2018-09-04T14:30:54.272Z,10.40
2018-09-04T14:31:54.186Z,10.30
2018-09-04T14:32:54.153Z,10.60
2018-09-04T14:33:54.142Z,11.40
2018-09-04T14:34:54.132Z,10.50
2018-09-04T14:35:54.153Z,8.90
2018-09-04T14:36:54.251Z,10.20
2018-09-04T14:37:54.124Z,10.30
2018-09-04T14:38:54.090Z,11.30
2018-09-04T14:39:55.585Z,10.20
2018-09-04T14:40:54.068Z,10.50
2018-09-04T14:41:54.083Z,10.80
2018-09-04T14:42:54.110Z,11.00
2018-09-04T14:43:54.036Z,10.70
2018-09-04T14:44:54.085Z,10.40
2018-09-04T14:45:54.016Z,11.20
2018-09-04T14:46:54.033Z,11.00
2018-09-04T14:47:53.998Z,11.00
2018-09-04T14:48:53.981Z,11.10
2018-09-04T14:49:53.969Z,10.90
2018-09-04T14:50:53.960Z,11.70
2018-09-04T14:51:53.948Z,11.80
2018-09-04T14:52:53.959Z,13.30
2018-09-04T14:53:54.044Z,13.60
2018-09-04T14:54:53.914Z,10.50
2018-09-04T14:55:53.903Z,12.90
2018-09-04T14:56:53.957Z,11.80
2018-09-04T14:57:53.903Z,10.50
2018-09-04T14:58:53.868Z,11.50
2018-09-04T14:59:53.916Z,14.50
2018-09-04T15:00:53.849Z,12.50
2018-09-04T15:01:53.839Z,12.50
2018-09-04T15:02:53.848Z,13.00
2018-09-04T15:03:53.814Z,11.40
2018-09-04T15:04:53.804Z,14.10
2018-09-04T15:05:53.794Z,13.40
2018-09-04T15:06:53.786Z,12.90
2018-09-04T15:07:53.799Z,13.60
2018-09-04T15:08:53.765Z,12.70
2018-09-04T15:09:53.749Z,12.10
2018-09-04T15:10:53.738Z,12.40
2018-09-04T15:11:53.728Z,13.40
2018-09-04T15:12:53.715Z,12.60
2018-09-04T15:13:53.726Z,11.20
2018-09-04T15:14:53.694Z,11.30
2018-09-04T15:15:53.728Z,11.00
2018-09-04T15:16:53.673Z,11.10
2018-09-04T15:17:53.662Z,10.00
2018-09-04T15:18:53.728Z,10.60
2018-09-04T15:19:53.640Z,8.80
2018-09-04T15:20:53.628Z,9.90
2018-09-04T15:21:53.618Z,9.60
2018-09-04T15:22:53.607Z,9.40
2018-09-04T15:23:53.619Z,10.00
2018-09-04T15:24:53.586Z,9.30
2018-09-04T15:25:53.579Z,9.60
2018-09-04T15:26:53.561Z,9.70
2018-09-04T15:27:53.551Z,9.90
2018-09-04T15:28:53.563Z,10.20
2018-09-04T15:29:53.529Z,9.00
2018-09-04T15:30:53.518Z,9.00
2018-09-04T15:31:53.546Z,9.30
2018-09-04T15:32:53.495Z,9.70
2018-09-04T15:33:53.510Z,9.50
2018-09-04T15:34:53.474Z,9.50
2018-09-04T15:35:53.464Z,10.80
2018-09-04T15:36:53.506Z,10.30
2018-09-04T15:37:53.442Z,10.00
2018-09-04T15:38:53.429Z,10.50
2018-09-04T15:39:53.438Z,10.20
2018-09-04T15:40:53.404Z,10.40
2018-09-04T15:41:53.394Z,11.10
2018-09-04T15:42:53.432Z,10.50
2018-09-04T15:43:53.371Z,10.00
2018-09-04T15:44:53.382Z,10.40
2018-09-04T15:45:53.398Z,11.30
2018-09-04T15:46:53.336Z,10.60
2018-09-04T15:47:53.324Z,10.80
2018-09-04T15:48:53.314Z,10.50
2018-09-04T15:49:53.330Z,10.40
2018-09-04T15:50:53.292Z,10.70
2018-09-04T15:51:53.281Z,10.30
2018-09-04T15:52:53.270Z,10.60
2018-09-04T15:53:53.260Z,10.60
2018-09-04T15:54:53.246Z,11.20
2018-09-04T15:55:53.258Z,10.80
2018-09-04T15:56:53.308Z,11.00
2018-09-04T15:57:53.215Z,11.40
2018-09-04T15:58:53.202Z,11.20
2018-09-04T15:59:53.191Z,11.30
2018-09-04T16:00:53.200Z,10.70
2018-09-04T16:01:53.169Z,10.90
2018-09-04T16:02:53.501Z,10.70
2018-09-04T16:03:53.143Z,11.00
2018-09-04T16:04:53.135Z,11.00
2018-09-04T16:05:53.144Z,10.90
2018-09-04T16:06:53.113Z,11.40
2018-09-04T16:07:53.102Z,11.40
2018-09-04T16:08:53.085Z,10.80
2018-09-04T16:09:53.168Z,10.90
2018-09-04T16:10:53.089Z,11.20
2018-09-04T16:11:53.050Z,11.60
2018-09-04T16:12:53.038Z,10.60
2018-09-04T16:13:53.026Z,10.80
2018-09-04T16:14:53.014Z,10.70
2018-09-04T16:15:53.004Z,11.60
2018-09-04T16:16:53.013Z,11.10
2018-09-04T16:17:52.981Z,11.30
2018-09-04T16:18:52.970Z,11.10
2018-09-04T16:19:52.959Z,11.60
2018-09-04T16:20:52.946Z,10.70
2018-09-04T16:21:52.956Z,11.50
2018-09-04T16:22:52.922Z,11.60
2018-09-04T16:23:52.915Z,10.60
2018-09-04T16:24:52.902Z,11.80
2018-09-04T16:25:52.890Z,11.60
2018-09-04T16:26:52.909Z,10.70
2018-09-04T16:27:52.872Z,11.20
2018-09-04T16:28:52.855Z,11.00
2018-09-04T16:29:52.846Z,11.30
2018-09-04T16:30:52.837Z,11.70
2018-09-04T16:31:52.824Z,11.10
2018-09-04T16:32:52.838Z,11.90
2018-09-04T16:33:52.801Z,11.60
2018-09-04T16:34:52.935Z,12.80
2018-09-04T16:35:52.779Z,12.50
2018-09-04T16:36:52.768Z,12.50
2018-09-04T16:37:52.778Z,11.60
2018-09-04T16:38:52.749Z,11.30
2018-09-04T16:39:52.739Z,11.50
2018-09-04T16:40:52.723Z,11.80
2018-09-04T16:41:52.713Z,11.50
2018-09-04T16:42:52.729Z,11.40
2018-09-04T16:43:52.694Z,10.60
2018-09-04T16:44:52.679Z,11.50
2018-09-04T16:45:52.665Z,11.60
2018-09-04T16:46:52.658Z,12.10
2018-09-04T16:47:52.647Z,11.80
2018-09-04T16:48:52.658Z,12.00
2018-09-04T16:49:52.627Z,11.60
2018-09-04T16:50:52.612Z,11.80
2018-09-04T16:51:52.600Z,11.90
2018-09-04T16:52:52.591Z,11.40
2018-09-04T16:53:52.599Z,11.80
2018-09-04T16:54:52.568Z,11.00
2018-09-04T16:55:52.562Z,11.00
2018-09-04T16:56:52.549Z,11.60
2018-09-04T16:57:52.535Z,11.80
2018-09-04T16:58:52.551Z,11.70
2018-09-04T16:59:52.511Z,11.70
2018-09-04T17:00:52.501Z,11.60
2018-09-04T17:01:52.490Z,9.60
2018-09-04T17:02:52.477Z,10.90
2018-09-04T17:03:52.468Z,11.20
2018-09-04T17:04:52.477Z,10.90
2018-09-04T17:05:52.444Z,9.90
2018-09-04T17:06:52.434Z,10.10
2018-09-04T17:07:52.422Z,10.10
2018-09-04T17:08:52.413Z,10.30
2018-09-04T17:09:52.427Z,10.50
2018-09-04T17:10:52.388Z,10.60
2018-09-04T17:11:52.378Z,10.10
2018-09-04T17:12:52.423Z,10.80
2018-09-04T17:13:52.355Z,10.20
2018-09-04T17:14:52.347Z,9.60
2018-09-04T17:15:52.354Z,9.90
2018-09-04T17:16:52.323Z,10.20
2018-09-04T17:17:52.311Z,9.40
2018-09-04T17:18:52.304Z,8.90
2018-09-04T17:19:52.317Z,9.60
2018-09-04T17:20:52.278Z,9.30
2018-09-04T17:21:52.266Z,9.00
2018-09-04T17:22:52.254Z,9.80
2018-09-04T17:23:52.244Z,8.90
2018-09-04T17:24:52.234Z,11.00
2018-09-04T17:25:52.275Z,11.10
2018-09-04T17:26:52.214Z,11.20
2018-09-04T17:27:52.198Z,10.50
2018-09-04T17:28:52.188Z,9.90
2018-09-04T17:29:52.177Z,9.70
2018-09-04T17:30:52.189Z,11.40
2018-09-04T17:31:52.185Z,10.70
2018-09-04T17:32:52.150Z,9.80
2018-09-04T17:33:52.133Z,11.30
2018-09-04T17:34:52.124Z,11.70
2018-09-04T17:35:52.132Z,12.00
2018-09-04T17:36:52.099Z,11.70
2018-09-04T17:37:52.090Z,12.40
2018-09-04T17:38:52.098Z,10.80
2018-09-04T17:39:52.071Z,11.20
2018-09-04T17:40:52.076Z,11.10
2018-09-04T17:41:52.042Z,11.70
2018-09-04T17:42:52.033Z,11.70
2018-09-04T17:43:52.022Z,10.50
2018-09-04T17:44:52.011Z,10.90
2018-09-04T17:45:52.021Z,10.60
2018-09-04T17:46:51.988Z,11.00
2018-09-04T17:47:51.983Z,11.70
2018-09-04T17:48:51.967Z,11.50
2018-09-04T17:49:51.954Z,12.00
2018-09-04T17:50:51.972Z,11.40
2018-09-04T17:51:51.934Z,11.20
2018-09-04T17:52:51.920Z,12.10
2018-09-04T17:53:51.913Z,11.40
2018-09-04T17:54:51.973Z,12.40
2018-09-04T17:55:51.887Z,11.00
2018-09-04T17:56:51.897Z,10.30
2018-09-04T17:57:51.865Z,11.20
2018-09-04T17:58:51.857Z,11.70
2018-09-04T17:59:51.840Z,11.80
2018-09-04T18:00:51.848Z,11.60
2018-09-04T18:01:51.840Z,12.10
2018-09-04T18:02:51.806Z,10.50
2018-09-04T18:03:51.796Z,12.10
2018-09-04T18:04:51.784Z,11.30
2018-09-04T18:05:51.772Z,10.80
2018-09-04T18:06:51.781Z,11.60
2018-09-04T18:07:51.749Z,13.00
2018-09-04T18:08:51.738Z,12.80
2018-09-04T18:09:51.732Z,12.60
2018-09-04T18:10:51.715Z,12.20
2018-09-04T18:11:51.734Z,12.20
2018-09-04T18:12:51.691Z,12.60
2018-09-04T18:13:51.679Z,12.40
2018-09-04T18:14:51.668Z,13.60
2018-09-04T18:15:51.656Z,11.70
2018-09-04T18:16:51.645Z,12.20
2018-09-04T18:17:51.660Z,13.50
2018-09-04T18:18:51.622Z,12.70
2018-09-04T18:19:51.610Z,12.80
2018-09-04T18:20:51.599Z,12.30
2018-09-04T18:21:51.586Z,12.40
2018-09-04T18:22:51.575Z,13.80
2018-09-04T18:23:51.585Z,12.90
2018-09-04T18:24:51.554Z,12.70
2018-09-04T18:25:51.541Z,12.00
2018-09-04T18:26:51.536Z,11.90
2018-09-04T18:27:51.517Z,12.60
2018-09-04T18:28:51.529Z,12.80
2018-09-04T18:29:51.495Z,13.10
2018-09-04T18:30:51.481Z,13.50
2018-09-04T18:31:51.471Z,13.20
2018-09-04T18:32:51.459Z,12.20
2018-09-04T18:33:51.469Z,12.20
2018-09-04T18:34:51.435Z,12.80
2018-09-04T18:35:51.424Z,12.30
2018-09-04T18:36:51.412Z,12.10
2018-09-04T18:37:51.400Z,12.60
2018-09-04T18:38:51.416Z,12.20
2018-09-04T18:39:51.381Z,12.20
2018-09-04T18:40:51.365Z,12.40
2018-09-04T18:41:51.354Z,12.80
2018-09-04T18:42:51.342Z,12.70
2018-09-04T18:43:51.330Z,12.10